Change the Weather History Date:

Monday, November 25, 2013

  Actual Average (KMDW) Record (KMDW)
Temperature  
Mean Temperature 26 °F 37 °F  
Max Temperature 32 °F 43 °F 61 °F (2006)
Min Temperature 19 °F 30 °F 0 °F (1950)
Degree Days  
Heating Degree Days 40 28  
Month to date heating degree days 558  
Since 1 July heating degree days 989  
Cooling Degree Days 0 0  
Month to date cooling degree days 0  
Year to date cooling degree days 1045  
Moisture  
Dew Point 18 °F    
Average Humidity 67    
Maximum Humidity 88    
Minimum Humidity 48    
Precipitation  
Precipitation 0.00 in 0.10 in 0.76 in (1979)
Month to date precipitation 2.87  
Year to date precipitation 35.97  
Sea Level Pressure  
Sea Level Pressure 30.20 in    
Wind  
Wind Speed 14 mph (SW)    
Max Wind Speed 21 mph    
Max Gust Speed 29 mph    
Visibility 10 miles    
Events Snow    
T = Trace of Precipitation, MM = Missing Value Source: NWS Daily Summary

Daily Weather History Graph

Daily Weather History Graph

Search for Another Location

Airport or City:

Trip Planner

Search our weather history database for the weather conditions in past years. The results will help you decide how hot, cold, wet, or windy it might be!

Date:

Astronomy

Nov. 25, 2013 Rise Set
Actual Time 6:50 AM CST 4:23 PM CST
Civil Twilight 6:20 AM CST 4:53 PM CST
Nautical Twilight 5:46 AM CST 5:27 PM CST
Astronomical Twilight 5:13 AM CST 6:01 PM CST
Moon 11:50 PM CST (11/25) 12:04 PM CST (11/25)
Length of Visible Light 10h 33m
Length of Day
9h 32m
Waning Gibbous, 51% of the Moon is Illuminated
Nov 25
Waning Gibbous
Nov 25
Last Quarter
Dec 2
New
Dec 9
First Quarter
Dec 17
Full

Hourly Weather History & Observations

Time (CST) Temp. Windchill Dew Point Humidity Pressure Visibility Wind Dir Wind Speed Gust Speed Precip Events Conditions
12:15 AM 19.4 °F 7.9 °F 9.3 °F 65% 30.40 in 10.0 mi SSW 10.4 mph - N/A   Clear
12:35 AM 19.8 °F 7.1 °F 9.3 °F 64% 30.40 in 10.0 mi SW 12.7 mph - N/A   Clear
12:55 AM 19.9 °F 6.7 °F 9.5 °F 64% 30.39 in 10.0 mi SW 13.8 mph - N/A   Clear
1:15 AM 20.1 °F 9.5 °F 9.5 °F 63% 30.36 in 10.0 mi SSW 9.2 mph - N/A   Clear
1:35 AM 20.3 °F 7.2 °F 9.5 °F 63% 30.36 in 10.0 mi SW 13.8 mph - N/A   Clear
1:55 AM 20.7 °F 6.6 °F 9.3 °F 62% 30.37 in 10.0 mi SW 16.1 mph - N/A   Clear
2:15 AM 20.8 °F 8.4 °F 9.5 °F 62% 30.36 in 10.0 mi SSW 12.7 mph - N/A   Clear
2:35 AM 21.2 °F 7.8 °F 9.5 °F 61% 30.34 in 10.0 mi SSW 15.0 mph - N/A   Clear
2:55 AM 21.6 °F 7.8 °F 9.5 °F 60% 30.33 in 10.0 mi SSW 16.1 mph - N/A   Clear
3:15 AM 21.7 °F 9.0 °F 9.7 °F 60% 30.32 in 10.0 mi SSW 13.8 mph 18.4 mph N/A   Clear
3:35 AM 22.1 °F 9.5 °F 9.7 °F 59% 30.31 in 10.0 mi SSW 13.8 mph - N/A   Clear
3:55 AM 22.1 °F 9.5 °F 10.2 °F 60% 30.30 in 10.0 mi SSW 13.8 mph - N/A   Clear
4:15 AM 22.1 °F 9.5 °F 10.8 °F 62% 30.30 in 10.0 mi SSW 13.8 mph - N/A   Clear
4:35 AM 22.8 °F 10.4 °F 11.3 °F 61% 30.30 in 10.0 mi SSW 13.8 mph - N/A   Clear
4:55 AM 23.4 °F 10.1 °F 12.0 °F 62% 30.29 in 10.0 mi SSW 16.1 mph 19.6 mph N/A   Clear
5:15 AM 23.9 °F 10.8 °F 12.2 °F 61% 30.28 in 10.0 mi SSW 16.1 mph - N/A   Mostly Cloudy
5:35 AM 24.4 °F 12.4 °F 12.9 °F 62% 30.27 in 10.0 mi SW 13.8 mph - N/A   Overcast
5:55 AM 24.6 °F 12.7 °F 13.1 °F 62% 30.26 in 10.0 mi SSW 13.8 mph - N/A   Overcast
6:15 AM 24.8 °F 11.9 °F 13.6 °F 63% 30.26 in 10.0 mi SSW 16.1 mph - N/A   Overcast
6:35 AM 25.3 °F 12.6 °F 13.5 °F 61% 30.24 in 10.0 mi SSW 16.1 mph 27.6 mph N/A   Overcast
6:55 AM 25.7 °F 13.1 °F 13.1 °F 59% 30.24 in 10.0 mi SSW 16.1 mph 23.0 mph N/A   Overcast
7:15 AM 25.7 °F 12.7 °F 13.6 °F 60% 30.24 in 10.0 mi SSW 17.3 mph - N/A   Overcast
7:35 AM 25.9 °F 13.3 °F 13.8 °F 60% 30.23 in 10.0 mi SSW 16.1 mph 24.2 mph N/A   Overcast
7:55 AM 26.4 °F 12.5 °F 14.0 °F 59% 30.23 in 10.0 mi SSW 20.7 mph 24.2 mph N/A   Overcast
8:15 AM 26.6 °F 12.7 °F 14.0 °F 59% 30.23 in 10.0 mi SW 20.7 mph 28.8 mph N/A   Mostly Cloudy
8:35 AM 27.1 °F 14.9 °F 14.4 °F 59% 30.23 in 10.0 mi SSW 16.1 mph 25.3 mph N/A   Mostly Cloudy
8:55 AM 27.5 °F 15.0 °F 14.2 °F 57% 30.22 in 10.0 mi SSW 17.3 mph 27.6 mph N/A   Overcast
9:15 AM 28.8 °F 16.6 °F 14.5 °F 55% 30.21 in 10.0 mi SW 17.3 mph 27.6 mph N/A   Overcast
9:35 AM 29.3 °F 17.7 °F 14.2 °F 53% 30.21 in 10.0 mi SW 16.1 mph 25.3 mph N/A   Overcast
9:55 AM 29.7 °F 16.7 °F 13.8 °F 52% 30.19 in 10.0 mi SSW 20.7 mph 26.5 mph N/A   Overcast
10:15 AM 30.6 °F 19.0 °F 13.8 °F 50% 30.19 in 10.0 mi SSW 17.3 mph 25.3 mph N/A   Overcast
10:35 AM 31.5 °F 19.8 °F 14.2 °F 49% 30.19 in 10.0 mi SW 18.4 mph 23.0 mph N/A   Overcast
10:55 AM 31.5 °F 19.4 °F 13.6 °F 48% 30.18 in 10.0 mi SW 19.6 mph 24.2 mph N/A   Overcast
11:15 AM 31.1 °F 19.7 °F 14.0 °F 49% 30.18 in 10.0 mi SW 17.3 mph 26.5 mph N/A   Overcast
11:35 AM 31.6 °F 19.3 °F 14.0 °F 48% 30.17 in 10.0 mi SW 20.7 mph 27.6 mph N/A   Overcast
11:55 AM 32.0 °F 19.8 °F 15.4 °F 51% 30.16 in 10.0 mi SW 20.7 mph - N/A   Overcast
12:15 PM 31.8 °F 21.4 °F 16.3 °F 53% 30.15 in 10.0 mi SW 15.0 mph 26.5 mph N/A   Overcast
12:35 PM 31.6 °F 19.3 °F 18.1 °F 57% 30.15 in 10.0 mi SW 20.7 mph 25.3 mph N/A   Overcast
12:55 PM 31.1 °F 18.9 °F 20.1 °F 64% 30.15 in 10.0 mi SW 19.6 mph 25.3 mph N/A Snow Light Snow
1:15 PM 30.2 °F 19.3 °F 23.2 °F 75% 30.13 in 3.0 mi SW 15.0 mph - N/A Snow Light Snow
1:35 PM 30.2 °F 18.1 °F 23.7 °F 77% 30.12 in 5.0 mi SW 18.4 mph 24.2 mph N/A Snow Light Snow
1:55 PM 30.2 °F 18.9 °F 22.6 °F 73% 30.12 in 10.0 mi SW 16.1 mph - N/A   Overcast
2:15 PM 30.2 °F 18.9 °F 23.2 °F 75% 30.11 in 10.0 mi SW 16.1 mph 23.0 mph N/A   Overcast
2:35 PM 30.2 °F 19.3 °F 23.4 °F 76% 30.12 in 7.0 mi SW 15.0 mph 23.0 mph N/A Snow Light Snow
2:55 PM 30.9 °F 20.2 °F 22.8 °F 72% 30.12 in 10.0 mi SW 15.0 mph - N/A   Overcast
3:15 PM 31.1 °F 19.7 °F 21.9 °F 69% 30.10 in 10.0 mi SW 17.3 mph 23.0 mph N/A   Overcast
3:35 PM 31.1 °F 19.3 °F 22.3 °F 70% 30.12 in 10.0 mi SW 18.4 mph 23.0 mph N/A   Overcast
3:55 PM 30.9 °F 20.7 °F 22.8 °F 72% 30.13 in 10.0 mi SW 13.8 mph 20.7 mph N/A   Overcast
4:15 PM 31.1 °F 21.9 °F 22.5 °F 70% 30.13 in 10.0 mi SW 11.5 mph - N/A   Overcast
4:35 PM 31.1 °F 20.9 °F 22.8 °F 71% 30.13 in 10.0 mi SW 13.8 mph - N/A Snow Light Snow
4:55 PM 30.4 °F 21.0 °F 24.1 °F 77% 30.13 in 5.0 mi SW 11.5 mph - N/A Snow Light Snow
5:15 PM 29.8 °F 20.3 °F 25.0 °F 82% 30.13 in 3.0 mi SW 11.5 mph - N/A Snow Light Snow
5:35 PM 29.3 °F 19.6 °F 25.7 °F 86% 30.14 in 4.0 mi SW 11.5 mph 16.1 mph N/A Snow Light Snow
5:55 PM 29.5 °F 19.9 °F 25.5 °F 85% 30.14 in 7.0 mi SW 11.5 mph - N/A Snow Light Snow
6:15 PM 29.3 °F 20.2 °F 25.5 °F 86% 30.14 in 10.0 mi SW 10.4 mph - N/A   Overcast
6:35 PM 29.7 °F 21.3 °F 25.2 °F 83% 30.15 in 10.0 mi SW 9.2 mph - N/A   Overcast
6:55 PM 29.8 °F 20.9 °F 24.8 °F 81% 30.14 in 10.0 mi SW 10.4 mph - N/A   Overcast
7:15 PM 29.7 °F 20.7 °F 25.3 °F 84% 30.15 in 10.0 mi SW 10.4 mph - N/A   Overcast
7:35 PM 29.8 °F 19.8 °F 25.2 °F 83% 30.14 in 10.0 mi SW 12.7 mph - N/A   Overcast
7:55 PM 30.0 °F 19.5 °F 24.6 °F 80% 30.14 in 10.0 mi SW 13.8 mph - N/A   Overcast
8:15 PM 30.0 °F 20.0 °F 23.9 °F 78% 30.14 in 10.0 mi SW 12.7 mph - N/A   Overcast
8:35 PM 30.2 °F 21.3 °F 23.7 °F 77% 30.14 in 10.0 mi SW 10.4 mph - N/A   Overcast
8:55 PM 30.2 °F 20.2 °F 23.4 °F 76% 30.14 in 10.0 mi SW 12.7 mph - N/A   Overcast
9:15 PM 30.6 °F 21.2 °F 23.4 °F 75% 30.13 in 10.0 mi SW 11.5 mph - N/A   Overcast
9:35 PM 30.6 °F 21.8 °F 23.5 °F 75% 30.13 in 10.0 mi SW 10.4 mph - N/A   Overcast
9:55 PM 30.7 °F 22.0 °F 23.0 °F 73% 30.13 in 10.0 mi WSW 10.4 mph 16.1 mph N/A   Overcast
10:15 PM 31.1 °F 22.4 °F 22.8 °F 71% 30.12 in 10.0 mi WSW 10.4 mph - N/A   Overcast
10:35 PM 31.3 °F 23.3 °F 22.8 °F 71% 30.11 in 10.0 mi WSW 9.2 mph - N/A   Overcast
10:55 PM 29.5 °F 21.1 °F 22.5 °F 75% 30.11 in 10.0 mi SW 9.2 mph - N/A   Mostly Cloudy
11:15 PM 27.5 °F 20.2 °F 21.9 °F 80% 30.11 in 10.0 mi SW 6.9 mph - N/A   Clear
11:35 PM 25.9 °F 18.2 °F 21.4 °F 83% 30.10 in 10.0 mi SSW 6.9 mph - N/A   Clear
11:55 PM 22.8 °F 15.5 °F 19.8 °F 88% 30.10 in 10.0 mi SSW 5.8 mph - N/A   Clear